Impacts TAF Board INFO
FOR SITUATIONAL AWARENESS. NOT TO BE USED FOR FLIGHT PLANNING PURPOSES.
IDs:

KMCO - Orlando Intl, FL, US

Issued at 1450 UTC 23 May 2018
Updated at 1503 UTC 23 May 2018
Potential Impact None Slight Moderate High
Time<<24/04Z 24/05Z 24/06Z 24/07Z 24/08Z 24/09Z 24/10Z 24/11Z 24/12Z 24/13Z 24/14Z 24/15Z 24/16Z>>
Type PRVL PRVL PRVL PRVL PRVL PRVL PRVL PRVL PRVL PRVL PRVL PRVL PRVL
VIS >6 >6 >6 >6 >6 >6 >6 >6 >6 >6 >6 >6 >6
CIG 150 150 150 150 150 150 150 150 150 150 -- -- --
Cover BKN BKN BKN BKN BKN BKN BKN BKN BKN BKN SCT SCT SCT
FltCat VFR VFR VFR VFR VFR VFR VFR VFR VFR VFR VFR VFR VFR
WX -- -- -- -- -- -- -- -- -- -- -- -- --
WDir 100 100 100 100 100 100 100 100 100 100 VRB VRB VRB
WSpd 6 6 6 6 6 6 6 6 6 6 4 4 4
WGst -- -- -- -- -- -- -- -- -- -- -- -- --

Raw TAF
KMCO 231450Z 2315/2418 14006KT P6SM SCT030 SCT250
  FM231800 10009KT P6SM VCSH BKN035 BKN050
  FM240000 10006KT P6SM FEW045 SCT080 BKN150
  FM241400 VRB04KT P6SM FEW025 SCT100 SCT250


METAR Board
Radar Display
Forecast Discussion

FOR SITUATIONAL AWARENESS. NOT TO BE USED FOR FLIGHT PLANNING PURPOSES.